Time;durP1;ratioP1;P1;durP2;ratioP2;P2;SDS_P1;SDS_P2;PMS_P1;PMS_P2;Temp;Humidity;BMP_temperature;BMP_pressure;BME280_temperature;BME280_humidity;BME280_pressure;Samples;Min_cycle;Max_cycle;Signal;HPM_P1;HPM_P2
2022/12/11 00:00:53;;;;;;;27.40;14.40;;;-1.80;99.90;;;;;;4991883;28;20038;-80
2022/12/11 00:03:20;;;;;;;21.63;12.52;;;-1.80;99.90;;;;;;4992925;28;20065;-80
2022/12/11 00:05:48;;;;;;;19.02;14.35;;;-1.80;99.90;;;;;;4992269;28;20414;-80
2022/12/11 00:08:15;;;;;;;23.67;14.50;;;-1.80;99.90;;;;;;4990436;28;20073;-79
2022/12/11 00:10:48;;;;;;;19.98;13.18;;;-1.90;99.90;;;;;;4992385;28;20065;-79
2022/12/11 00:13:16;;;;;;;21.15;12.55;;;-1.90;99.90;;;;;;4991405;28;20050;-80
2022/12/11 00:15:43;;;;;;;24.25;13.43;;;-1.90;99.90;;;;;;4992142;28;20453;-79
2022/12/11 00:18:20;;;;;;;27.08;18.85;;;-1.90;99.90;;;;;;4992279;28;20518;-80
2022/12/11 00:20:47;;;;;;;21.45;14.45;;;-1.90;99.90;;;;;;5018588;28;20396;-79
2022/12/11 00:23:15;;;;;;;28.77;17.08;;;-1.90;99.90;;;;;;5029864;28;20397;-79
2022/12/11 00:25:45;;;;;;;31.98;13.05;;;-1.90;99.90;;;;;;5030700;28;20042;-79
2022/12/11 00:28:18;;;;;;;24.70;15.05;;;-1.90;99.90;;;;;;5029908;28;20420;-79
2022/12/11 00:30:46;;;;;;;32.13;17.05;;;-1.90;99.90;;;;;;5031016;28;20057;-79
2022/12/11 00:33:15;;;;;;;29.27;15.55;;;-1.90;99.90;;;;;;5029259;28;20507;-79
2022/12/11 00:35:44;;;;;;;26.23;16.08;;;-2.00;99.90;;;;;;5030963;28;20404;-78
2022/12/11 00:38:17;;;;;;;26.02;15.38;;;-2.00;99.90;;;;;;5024878;28;20050;-78
2022/12/11 00:40:48;;;;;;;29.17;16.92;;;-2.00;99.90;;;;;;5010533;28;20046;-79
2022/12/11 00:43:16;;;;;;;26.70;17.27;;;-2.00;99.90;;;;;;5009976;28;20406;-79
2022/12/11 00:45:45;;;;;;;27.65;14.45;;;-2.00;99.90;;;;;;5010961;28;20046;-78
2022/12/11 00:48:14;;;;;;;27.52;16.05;;;-2.00;99.90;;;;;;5010061;28;20045;-79
2022/12/11 00:50:42;;;;;;;22.67;12.88;;;-2.00;99.90;;;;;;5010607;28;20088;-79
2022/12/11 00:53:09;;;;;;;25.85;14.38;;;-2.00;99.90;;;;;;5005936;28;20409;-80
2022/12/11 00:55:41;;;;;;;32.63;18.25;;;-2.00;99.90;;;;;;4991735;28;20263;-79
2022/12/11 00:58:10;;;;;;;23.10;14.60;;;-2.10;99.90;;;;;;5001945;28;20046;-79
2022/12/11 01:00:39;;;;;;;32.05;16.67;;;-2.10;99.90;;;;;;5001781;28;20061;-80
2022/12/11 01:03:07;;;;;;;27.27;16.23;;;-2.10;99.90;;;;;;4992227;28;20042;-80
2022/12/11 01:05:35;;;;;;;23.42;15.13;;;-2.10;99.90;;;;;;4991338;28;20039;-79
2022/12/11 01:08:04;;;;;;;19.63;12.63;;;-2.00;99.90;;;;;;5005899;28;20039;-80
2022/12/11 01:10:33;;;;;;;21.27;13.48;;;-2.10;99.90;;;;;;4991252;28;20057;-79
2022/12/11 01:13:04;;;;;;;28.98;16.55;;;-2.10;99.90;;;;;;4989252;28;20050;-79
2022/12/11 01:15:37;;;;;;;23.30;15.63;;;-2.10;99.90;;;;;;4990812;28;20046;-79
2022/12/11 01:18:13;;;;;;;24.60;14.30;;;-2.10;99.90;;;;;;4990072;28;20055;-79
2022/12/11 01:20:41;;;;;;;28.73;19.45;;;-2.10;99.90;;;;;;5014481;28;20065;-79
2022/12/11 01:23:11;;;;;;;26.02;16.98;;;-2.10;99.90;;;;;;5030248;28;20128;-79
2022/12/11 01:25:39;;;;;;;22.98;14.35;;;-2.10;99.90;;;;;;5029563;28;20424;-79
2022/12/11 01:28:08;;;;;;;23.45;15.27;;;-2.10;99.90;;;;;;5029105;28;20061;-79
2022/12/11 01:30:36;;;;;;;19.42;12.48;;;-2.10;99.90;;;;;;5029787;28;20045;-79
2022/12/11 01:33:03;;;;;;;27.55;14.63;;;-2.10;99.90;;;;;;5029669;28;20055;-79
2022/12/11 01:35:31;;;;;;;27.88;19.27;;;-2.20;99.90;;;;;;5029527;28;20045;-79
2022/12/11 01:37:58;;;;;;;28.83;16.55;;;-2.20;99.90;;;;;;5025681;28;20045;-79
2022/12/11 01:40:26;;;;;;;20.67;14.63;;;-2.20;99.90;;;;;;5009679;28;20053;-79
2022/12/11 01:42:54;;;;;;;23.42;14.38;;;-2.20;99.90;;;;;;5010130;28;20049;-79
2022/12/11 01:45:45;;;;;;;23.83;17.33;;;-2.20;99.90;;;;;;5008642;28;20418;-79
2022/12/11 01:48:21;;;;;;;26.10;15.93;;;-2.30;99.90;;;;;;5003986;28;20054;-79
2022/12/11 01:50:55;;;;;;;21.05;14.32;;;-2.30;99.90;;;;;;5010182;28;20393;-78
2022/12/11 01:53:32;;;;;;;26.63;14.95;;;-2.30;99.90;;;;;;5001719;28;20046;-78
2022/12/11 01:56:01;;;;;;;21.48;14.60;;;-2.30;99.90;;;;;;4988883;28;20383;-78
2022/12/11 01:58:32;;;;;;;24.25;14.68;;;-2.30;99.90;;;;;;4989563;28;20364;-79
2022/12/11 02:01:01;;;;;;;27.05;16.02;;;-2.30;99.90;;;;;;4989354;28;20122;-79
2022/12/11 02:03:29;;;;;;;22.88;13.68;;;-2.30;99.90;;;;;;4988650;28;20057;-77
2022/12/11 02:06:01;;;;;;;20.35;11.82;;;-2.30;99.90;;;;;;5006034;28;20053;-78
2022/12/11 02:08:28;;;;;;;;;;;-2.30;99.90;;;;;;4990696;28;20054;-76
2022/12/11 02:11:10;;;;;;;29.95;18.38;;;-2.40;99.90;;;;;;4989848;28;20297;-77
2022/12/11 02:13:37;;;;;;;26.30;13.20;;;-2.30;99.90;;;;;;5001882;28;20033;-77
2022/12/11 02:16:30;;;;;;;22.55;15.95;;;-2.40;99.90;;;;;;5017618;28;20041;-77
2022/12/11 02:19:30;;;;;;;26.40;16.35;;;-2.40;99.90;;;;;;5004811;28;20042;-77
2022/12/11 02:22:04;;;;;;;21.48;14.32;;;-2.40;99.90;;;;;;4957361;28;20058;-77
2022/12/11 02:25:02;;;;;;;22.00;12.93;;;-2.40;99.90;;;;;;4967503;28;20438;-77
2022/12/11 02:27:40;;;;;;;23.10;12.82;;;-2.40;99.90;;;;;;4967661;28;20073;-77
2022/12/11 02:30:10;;;;;;;20.02;14.23;;;-2.40;99.90;;;;;;4966628;28;20062;-77
2022/12/11 02:32:59;;;;;;;14.70;12.20;;;-2.40;99.90;;;;;;4967363;28;21065;-78
2022/12/11 02:35:33;;;;;;;19.08;14.75;;;-2.40;99.90;;;;;;4967382;28;20414;-77
2022/12/11 02:38:19;;;;;;;20.33;11.30;;;-2.50;99.90;;;;;;4972120;28;20046;-78
2022/12/11 02:40:50;;;;;;;22.05;12.75;;;-2.40;99.90;;;;;;4986278;28;20425;-77
2022/12/11 02:43:20;;;;;;;23.05;12.75;;;-2.40;99.90;;;;;;4985992;28;20477;-77
2022/12/11 02:45:49;;;;;;;19.42;10.57;;;-2.50;99.90;;;;;;4986669;28;20049;-78
2022/12/11 02:48:18;;;;;;;19.10;11.98;;;-2.40;99.90;;;;;;4985726;28;20421;-77
2022/12/11 02:50:49;;;;;;;18.77;12.23;;;-2.40;99.90;;;;;;4986104;28;20034;-77
2022/12/11 02:53:20;;;;;;;16.98;10.02;;;-2.40;99.90;;;;;;4985631;28;20386;-78
2022/12/11 02:55:51;;;;;;;18.38;13.35;;;-2.40;99.90;;;;;;4990750;28;20082;-78
2022/12/11 02:58:28;;;;;;;15.00;11.25;;;-2.40;99.90;;;;;;5008456;28;20429;-78
2022/12/11 03:00:55;;;;;;;18.55;12.15;;;-2.40;99.90;;;;;;5006981;28;20413;-78
2022/12/11 03:03:23;;;;;;;24.70;16.00;;;-2.50;99.90;;;;;;5008846;28;20060;-78
2022/12/11 03:05:52;;;;;;;21.30;12.43;;;-2.50;99.90;;;;;;5008690;28;20057;-78
2022/12/11 03:08:19;;;;;;;15.48;10.05;;;-2.50;99.90;;;;;;5006940;28;20050;-77
2022/12/11 03:10:47;;;;;;;21.00;12.10;;;-2.50;99.90;;;;;;5008795;28;20069;-77
2022/12/11 03:13:18;;;;;;;17.70;10.57;;;-2.50;99.90;;;;;;5005870;28;20347;-77
2022/12/11 03:16:08;;;;;;;19.95;12.73;;;-2.40;99.90;;;;;;5008535;28;20038;-78
2022/12/11 03:18:46;;;;;;;23.33;13.68;;;-2.50;99.90;;;;;;5007845;28;20748;-78
2022/12/11 03:21:54;;;;;;;20.13;13.80;;;-2.40;99.90;;;;;;5024403;28;20053;-78
2022/12/11 03:24:36;;;;;;;20.02;12.23;;;-2.50;99.90;;;;;;5027888;28;20049;-78
2022/12/11 03:27:12;;;;;;;16.88;13.70;;;-2.50;99.90;;;;;;5028868;28;20133;-78
2022/12/11 03:29:50;;;;;;;23.90;15.00;;;-2.40;99.90;;;;;;5026661;28;20049;-77
2022/12/11 03:32:22;;;;;;;17.05;10.70;;;-2.40;99.90;;;;;;5026080;28;20424;-78
2022/12/11 03:34:51;;;;;;;;;;;-2.40;99.90;;;;;;5028910;28;20417;-78
2022/12/11 03:37:27;;;;;;;17.10;11.00;;;-2.50;99.90;;;;;;5026036;28;19925;-78
2022/12/11 03:40:01;;;;;;;17.00;11.55;;;-2.40;99.90;;;;;;5026216;28;20049;-78
2022/12/11 03:42:30;;;;;;;18.45;11.38;;;-2.50;99.90;;;;;;5028268;28;20057;-78
2022/12/11 03:45:00;;;;;;;15.45;10.20;;;-2.50;99.90;;;;;;5025833;28;20408;-77
2022/12/11 03:47:29;;;;;;;15.25;11.07;;;-2.50;99.90;;;;;;5026562;28;20404;-77
2022/12/11 03:49:58;;;;;;;14.23;10.20;;;-2.50;99.90;;;;;;5027943;28;20448;-78
2022/12/11 03:52:28;;;;;;;19.27;11.45;;;-2.50;99.90;;;;;;5027592;28;20060;-77
2022/12/11 03:54:59;;;;;;;10.50;9.35;;;-2.50;99.90;;;;;;5006797;28;20406;-78
2022/12/11 03:57:31;;;;;;;14.20;9.50;;;-2.50;99.90;;;;;;5006804;28;20130;-77
2022/12/11 03:59:59;;;;;;;;;;;-2.50;99.90;;;;;;5007511;28;20046;-78
2022/12/11 04:02:26;;;;;;;17.92;11.80;;;-2.50;99.90;;;;;;5007756;28;19937;-78
2022/12/11 04:04:53;;;;;;;17.35;12.65;;;-2.60;99.90;;;;;;5007912;28;20049;-78
2022/12/11 04:07:24;;;;;;;20.42;13.30;;;-2.60;99.90;;;;;;5007957;28;20046;-78
2022/12/11 04:09:52;;;;;;;18.87;12.17;;;-2.60;99.90;;;;;;5007977;28;20056;-78
2022/12/11 04:12:19;;;;;;;14.55;10.70;;;-2.60;99.90;;;;;;5007211;28;20292;-78
2022/12/11 04:15:02;;;;;;;16.45;10.35;;;-2.60;99.90;;;;;;5006301;28;20054;-78
2022/12/11 04:26:06;;;;;;;15.75;10.27;;;-2.60;99.90;;;;;;5012193;28;20053;-78
2022/12/11 04:28:34;;;;;;;;;;;-2.60;99.90;;;;;;5030252;28;20050;-78
2022/12/11 04:31:02;;;;;;;15.82;11.13;;;-2.60;99.90;;;;;;5030372;28;19921;-78
2022/12/11 04:33:30;;;;;;;17.65;11.35;;;-2.60;99.90;;;;;;5029744;28;20773;-78
2022/12/11 04:35:59;;;;;;;24.33;10.50;;;-2.70;99.90;;;;;;5031405;28;20048;-78
2022/12/11 04:38:27;;;;;;;17.05;10.32;;;-2.60;99.90;;;;;;5022780;28;20058;-78
2022/12/11 04:40:59;;;;;;;15.93;10.30;;;-2.60;99.90;;;;;;5009159;28;20050;-78
2022/12/11 04:43:27;;;;;;;23.20;11.60;;;-2.60;99.90;;;;;;5010074;28;20476;-78
2022/12/11 04:46:06;;;;;;;18.80;11.65;;;-2.60;99.90;;;;;;5011431;28;20049;-78
2022/12/11 04:48:36;;;;;;;16.15;9.32;;;-2.70;99.90;;;;;;5010941;28;20042;-78
2022/12/11 04:51:05;;;;;;;15.80;9.77;;;-2.70;99.90;;;;;;5011036;28;20050;-78
2022/12/11 04:53:34;;;;;;;16.50;11.15;;;-2.70;99.90;;;;;;4989555;28;20383;-78
2022/12/11 04:56:05;;;;;;;13.23;10.23;;;-2.70;99.90;;;;;;4990164;28;20049;-78
2022/12/11 04:58:32;;;;;;;18.67;11.38;;;-2.70;99.90;;;;;;4990607;28;20417;-78
2022/12/11 05:01:05;;;;;;;17.08;9.10;;;-2.70;99.90;;;;;;4990773;28;20058;-78
2022/12/11 05:03:33;;;;;;;21.40;11.05;;;-2.80;99.90;;;;;;4975733;28;20655;-78
2022/12/11 05:06:01;;;;;;;15.45;11.15;;;-2.80;99.90;;;;;;4990135;28;20070;-79
2022/12/11 05:08:29;;;;;;;19.45;13.45;;;-2.80;99.90;;;;;;4989738;28;20046;-78
2022/12/11 05:10:58;;;;;;;14.93;10.45;;;-2.80;99.90;;;;;;4991447;28;20058;-78
2022/12/11 05:13:26;;;;;;;6.20;5.30;;;-2.80;99.90;;;;;;4989861;28;20421;-79
2022/12/11 05:15:54;;;;;;;14.98;8.88;;;-2.90;99.90;;;;;;5005561;28;20290;-78
2022/12/11 05:18:22;;;;;;;15.98;11.43;;;-2.90;99.90;;;;;;4973789;28;20054;-78
2022/12/11 05:21:02;;;;;;;15.20;10.30;;;-2.90;99.90;;;;;;5017605;28;20435;-78
2022/12/11 05:23:30;;;;;;;14.30;10.75;;;-2.90;99.90;;;;;;5028678;28;20076;-78
2022/12/11 05:26:00;;;;;;;17.60;8.43;;;-2.90;99.90;;;;;;5030448;28;20054;-78
2022/12/11 05:28:32;;;;;;;12.77;10.02;;;-2.90;99.90;;;;;;5029017;28;20068;-78
2022/12/11 05:31:05;;;;;;;14.07;9.38;;;-3.00;99.90;;;;;;5028573;28;20468;-78
2022/12/11 05:33:34;;;;;;;15.40;10.93;;;-2.90;99.90;;;;;;5029842;28;20041;-78
2022/12/11 05:36:02;;;;;;;13.40;9.40;;;-3.00;99.90;;;;;;5029738;28;20050;-78
2022/12/11 05:38:29;;;;;;;10.85;9.80;;;-2.90;99.90;;;;;;5020429;28;20054;-79
2022/12/11 05:40:59;;;;;;;12.18;7.90;;;-3.00;99.90;;;;;;5009401;28;20050;-78
2022/12/11 05:43:28;;;;;;;13.68;7.25;;;-3.00;99.90;;;;;;5008323;28;20410;-78
2022/12/11 05:46:03;;;;;;;14.20;8.95;;;-3.00;99.90;;;;;;5008586;28;20425;-78
2022/12/11 05:48:31;;;;;;;9.82;6.93;;;-2.90;99.90;;;;;;5008991;28;20266;-79
2022/12/11 05:51:00;;;;;;;9.20;7.47;;;-3.00;99.90;;;;;;5010201;28;20046;-78
2022/12/11 05:53:29;;;;;;;15.98;9.35;;;-3.00;99.90;;;;;;5001074;28;20074;-81
2022/12/11 05:56:07;;;;;;;10.32;7.28;;;-3.00;99.90;;;;;;4972665;28;20395;-80
2022/12/11 05:58:34;;;;;;;13.15;8.55;;;-3.00;99.90;;;;;;4989607;28;20387;-80
2022/12/11 06:01:22;;;;;;;14.90;9.10;;;-3.00;99.90;;;;;;4989951;28;20062;-81
2022/12/11 06:03:50;;;;;;;9.18;6.10;;;-3.00;99.90;;;;;;4988702;28;20445;-81
2022/12/11 06:06:18;;;;;;;9.80;8.65;;;-3.10;99.90;;;;;;4990401;28;20069;-81
2022/12/11 06:08:48;;;;;;;10.55;6.82;;;-3.10;99.90;;;;;;4988457;28;20417;-80
2022/12/11 06:11:16;;;;;;;15.35;8.68;;;-3.10;99.90;;;;;;4990156;28;20049;-80
2022/12/11 06:13:51;;;;;;;9.07;6.75;;;-3.10;99.90;;;;;;4988919;28;20046;-80
2022/12/11 06:16:19;;;;;;;10.90;7.70;;;-3.00;99.90;;;;;;4990426;28;20066;-80
2022/12/11 06:18:47;;;;;;;10.57;9.52;;;-3.00;99.90;;;;;;4990210;28;20418;-80
2022/12/11 06:21:19;;;;;;;12.02;8.50;;;-3.00;99.90;;;;;;5024189;28;20226;-80
2022/12/11 06:23:49;;;;;;;11.32;8.65;;;-3.10;99.90;;;;;;5027347;28;20048;-81
2022/12/11 06:26:18;;;;;;;10.85;6.63;;;-3.10;99.90;;;;;;5029642;28;20053;-80
2022/12/11 06:28:46;;;;;;;8.73;5.85;;;-3.10;99.90;;;;;;5027623;28;20064;-81
2022/12/11 06:31:13;;;;;;;13.25;8.60;;;-3.10;99.90;;;;;;5028756;28;20412;-80
2022/12/11 06:33:42;;;;;;;10.25;7.32;;;-3.10;99.90;;;;;;5027306;28;20038;-81
2022/12/11 06:36:14;;;;;;;11.38;6.63;;;-3.10;99.90;;;;;;5027430;28;20045;-80
2022/12/11 06:38:41;;;;;;;11.55;7.60;;;-3.10;99.90;;;;;;5001319;28;20414;-81
2022/12/11 06:41:10;;;;;;;11.27;7.82;;;-3.10;99.90;;;;;;5008404;28;20425;-80
2022/12/11 06:43:40;;;;;;;12.68;7.22;;;-3.10;99.90;;;;;;5005784;28;20065;-81
2022/12/11 06:46:15;;;;;;;13.25;10.23;;;-3.10;99.90;;;;;;5009346;28;20053;-80
2022/12/11 06:48:43;;;;;;;13.23;8.93;;;-3.10;99.90;;;;;;5005289;28;20421;-81
2022/12/11 06:51:17;;;;;;;10.55;8.52;;;-3.10;99.90;;;;;;5007581;28;20061;-81
2022/12/11 06:53:49;;;;;;;12.95;8.60;;;-3.10;99.90;;;;;;5007998;28;20046;-80
2022/12/11 06:56:17;;;;;;;14.70;7.38;;;-3.10;99.90;;;;;;5007194;28;20052;-80
2022/12/11 06:58:45;;;;;;;16.83;7.80;;;-3.10;99.90;;;;;;5009243;28;20069;-81
2022/12/11 07:01:22;;;;;;;12.73;7.97;;;-3.20;99.90;;;;;;5007166;28;20057;-81
2022/12/11 07:03:52;;;;;;;9.88;8.13;;;-3.30;99.90;;;;;;5008409;28;20042;-81
2022/12/11 07:06:20;;;;;;;13.13;9.65;;;-3.30;99.90;;;;;;5009128;28;20433;-81
2022/12/11 07:08:48;;;;;;;15.90;7.55;;;-3.30;99.90;;;;;;5007916;28;20064;-81
2022/12/11 07:11:17;;;;;;;12.10;8.45;;;-3.30;99.90;;;;;;5007246;28;20417;-81
2022/12/11 07:13:44;;;;;;;22.30;9.25;;;-3.40;99.90;;;;;;5007861;28;20413;-80
2022/12/11 07:16:14;;;;;;;10.50;7.30;;;-3.40;99.90;;;;;;5006185;28;20053;-80
2022/12/11 07:18:46;;;;;;;9.73;8.45;;;-3.40;99.90;;;;;;5007260;28;20069;-80
2022/12/11 07:21:14;;;;;;;;;;;-3.40;99.90;;;;;;5025854;28;20042;-80
2022/12/11 07:23:42;;;;;;;9.93;5.90;;;-3.40;99.90;;;;;;5027945;28;19932;-80
2022/12/11 07:26:15;;;;;;;11.32;7.70;;;-3.50;99.90;;;;;;5026942;28;20084;-80
2022/12/11 07:28:43;;;;;;;8.85;7.20;;;-3.50;99.90;;;;;;5025281;28;20053;-80
2022/12/11 07:31:16;;;;;;;13.95;9.07;;;-3.60;99.90;;;;;;5026880;28;20045;-80
2022/12/11 07:33:44;;;;;;;23.80;10.20;;;-3.70;99.90;;;;;;5027367;28;20045;-81
2022/12/11 07:36:14;;;;;;;15.15;10.70;;;-3.70;99.90;;;;;;5028060;28;20064;-80
2022/12/11 07:38:41;;;;;;;15.25;9.85;;;-3.60;99.90;;;;;;5018443;28;20061;-80
2022/12/11 07:41:14;;;;;;;17.30;10.35;;;-3.60;99.90;;;;;;5006441;28;20057;-80
2022/12/11 07:43:44;;;;;;;11.60;7.53;;;-3.60;99.90;;;;;;5007288;28;20083;-80
2022/12/11 07:46:18;;;;;;;10.90;7.20;;;-3.60;99.90;;;;;;5008499;28;20053;-81
2022/12/11 07:48:47;;;;;;;8.90;7.18;;;-3.90;99.90;;;;;;5001854;28;20631;-80
2022/12/11 07:51:29;;;;;;;13.95;9.77;;;-3.90;99.90;;;;;;5007813;28;20054;-80
2022/12/11 07:54:06;;;;;;;11.75;6.50;;;-3.80;99.90;;;;;;5002727;28;20350;-81
2022/12/11 07:56:37;;;;;;;11.57;8.38;;;-3.80;99.90;;;;;;5007728;28;20049;-80
2022/12/11 07:59:10;;;;;;;12.60;7.03;;;-3.70;99.90;;;;;;5006044;28;20485;-80
2022/12/11 08:01:39;;;;;;;6.95;6.18;;;-3.80;99.90;;;;;;5009268;28;20417;-80
2022/12/11 08:04:09;;;;;;;11.73;7.93;;;-3.70;99.90;;;;;;5009709;28;20046;-81
2022/12/11 08:06:38;;;;;;;11.40;7.75;;;-3.50;99.90;;;;;;5012213;28;20049;-80
2022/12/11 08:09:09;;;;;;;9.45;8.00;;;-3.40;99.90;;;;;;5010192;28;20417;-81
2022/12/11 08:11:43;;;;;;;9.13;6.22;;;-3.30;99.90;;;;;;5011127;28;20440;-80
2022/12/11 08:14:11;;;;;;;16.05;6.68;;;-3.30;99.90;;;;;;5010368;28;20050;-81
2022/12/11 08:16:41;;;;;;;10.88;8.32;;;-3.20;99.90;;;;;;5011254;28;20266;-81
2022/12/11 08:19:11;;;;;;;12.55;7.60;;;-3.20;99.90;;;;;;5009934;28;20054;-81
2022/12/11 08:21:39;;;;;;;12.55;8.73;;;-3.10;99.90;;;;;;5010354;28;20255;-81
2022/12/11 08:24:11;;;;;;;11.55;7.38;;;-3.00;99.90;;;;;;5010174;28;20046;-81
2022/12/11 08:26:38;;;;;;;11.00;7.47;;;-3.00;99.90;;;;;;5010363;28;20461;-81
2022/12/11 08:29:06;;;;;;;10.02;5.45;;;-3.10;99.90;;;;;;5009423;28;20042;-81
2022/12/11 08:31:34;;;;;;;9.35;6.97;;;-3.20;99.90;;;;;;5009604;28;20057;-81
2022/12/11 08:34:01;;;;;;;9.95;5.95;;;-3.10;99.90;;;;;;5011084;28;20053;-81
2022/12/11 08:36:29;;;;;;;13.40;7.85;;;-3.10;99.90;;;;;;5011374;28;20344;-81
2022/12/11 08:38:57;;;;;;;12.10;9.25;;;-3.10;99.90;;;;;;5001708;28;20093;-81
2022/12/11 08:41:31;;;;;;;9.30;5.75;;;-3.10;99.90;;;;;;5010533;28;20085;-81
2022/12/11 08:44:00;;;;;;;10.32;7.50;;;-3.10;99.90;;;;;;5009615;28;20405;-78
2022/12/11 08:46:30;;;;;;;14.68;9.90;;;-3.20;99.90;;;;;;5010510;28;20425;-78
2022/12/11 08:49:10;;;;;;;13.68;8.80;;;-3.10;99.90;;;;;;5007645;28;20042;-81
2022/12/11 08:51:39;;;;;;;13.02;8.85;;;-3.00;99.90;;;;;;5008902;28;20516;-81
2022/12/11 08:54:08;;;;;;;15.57;8.50;;;-2.90;99.90;;;;;;5008731;28;20457;-81
2022/12/11 08:56:37;;;;;;;15.77;10.75;;;-2.90;99.90;;;;;;5009877;28;20049;-81
2022/12/11 08:59:05;;;;;;;21.25;9.32;;;-2.90;99.90;;;;;;5006793;28;20058;-81
2022/12/11 09:01:33;;;;;;;16.85;9.93;;;-2.90;99.90;;;;;;5009204;28;20509;-81
2022/12/11 09:04:00;;;;;;;16.85;10.38;;;-2.80;99.90;;;;;;5007933;28;20120;-81
2022/12/11 09:06:31;;;;;;;17.55;10.02;;;-2.80;99.90;;;;;;5010097;28;20409;-81
2022/12/11 09:09:00;;;;;;;17.90;10.43;;;-2.70;99.90;;;;;;5008621;28;20045;-81
2022/12/11 09:11:30;;;;;;;12.00;8.20;;;-2.70;99.90;;;;;;5008739;28;20050;-81
2022/12/11 09:13:59;;;;;;;17.50;10.50;;;-2.70;99.90;;;;;;5008356;28;20042;-81
2022/12/11 09:16:39;;;;;;;13.20;8.52;;;-2.60;99.90;;;;;;5004237;28;20061;-81
2022/12/11 09:19:11;;;;;;;11.73;8.80;;;-2.60;99.90;;;;;;4996358;28;20064;-81
2022/12/11 09:21:39;;;;;;;10.80;8.52;;;-2.60;99.90;;;;;;4991429;28;20038;-81
2022/12/11 09:24:09;;;;;;;16.08;9.68;;;-2.50;99.90;;;;;;5001936;28;20054;-81
2022/12/11 09:26:37;;;;;;;14.98;10.85;;;-2.40;99.90;;;;;;4999779;28;20041;-81
2022/12/11 09:29:05;;;;;;;18.30;12.52;;;-2.40;99.90;;;;;;5005849;28;20045;-81
2022/12/11 09:31:34;;;;;;;18.13;9.85;;;-2.30;99.90;;;;;;4998455;28;20073;-81
2022/12/11 09:34:07;;;;;;;16.77;9.65;;;-2.20;99.90;;;;;;5009878;28;20054;-81
2022/12/11 09:36:41;;;;;;;21.83;11.38;;;-2.10;99.90;;;;;;5009429;28;20501;-81
2022/12/11 09:39:11;;;;;;;19.17;10.02;;;-2.10;99.90;;;;;;5008294;28;20046;-83
2022/12/11 09:42:11;;;;;;;16.35;10.00;;;-2.10;99.90;;;;;;5009339;28;20042;-82
2022/12/11 09:44:53;;;;;;;15.15;10.95;;;-2.10;99.90;;;;;;5007134;28;20653;-83
2022/12/11 09:47:43;;;;;;;9.43;7.25;;;-2.00;99.90;;;;;;5010743;28;20358;-83
2022/12/11 09:50:24;;;;;;;13.10;7.88;;;-1.90;99.90;;;;;;5035906;28;20046;-83
2022/12/11 09:53:20;;;;;;;15.20;9.20;;;-2.00;99.90;;;;;;5006154;28;20299;-83
2022/12/11 09:55:59;;;;;;;13.73;8.73;;;-2.20;99.90;;;;;;5009903;28;20057;-82
2022/12/11 09:59:04;;;;;;;12.98;10.40;;;-2.20;99.90;;;;;;5006743;28;20049;-82
2022/12/11 10:01:44;;;;;;;20.05;11.80;;;-2.20;99.90;;;;;;4987621;28;20282;-83
2022/12/11 10:04:40;;;;;;;12.32;8.10;;;-2.30;99.90;;;;;;4998848;28;20053;-84
2022/12/11 10:07:36;;;;;;;12.93;9.80;;;-2.30;99.90;;;;;;5009675;28;20057;-83
2022/12/11 10:10:19;;;;;;;12.65;9.73;;;-2.40;99.90;;;;;;4999105;28;20042;-83
2022/12/11 10:13:08;;;;;;;15.95;9.23;;;-2.30;99.90;;;;;;5007918;28;20038;-83
2022/12/11 10:15:48;;;;;;;14.90;9.93;;;-2.40;99.90;;;;;;5020383;28;20053;-82
2022/12/11 10:18:21;;;;;;;14.00;9.15;;;-2.40;99.90;;;;;;5007000;28;20058;-82
2022/12/11 10:20:51;;;;;;;15.43;10.30;;;-2.40;99.90;;;;;;5008599;28;20417;-81
2022/12/11 10:23:35;;;;;;;11.95;8.90;;;-2.40;99.90;;;;;;5007379;28;20061;-82
2022/12/11 10:26:06;;;;;;;12.00;9.13;;;-2.40;99.90;;;;;;5022247;28;20425;-83
2022/12/11 10:28:34;;;;;;;14.73;8.95;;;-2.40;99.90;;;;;;5007186;28;20042;-82
2022/12/11 10:31:21;;;;;;;20.10;11.10;;;-2.20;99.90;;;;;;4998612;28;20062;-82
2022/12/11 10:34:13;;;;;;;14.90;10.15;;;-2.20;99.90;;;;;;4995563;28;20049;-82
2022/12/11 10:36:42;;;;;;;16.25;10.80;;;-2.10;99.90;;;;;;5008731;28;20405;-81
2022/12/11 10:39:20;;;;;;;15.43;10.02;;;-2.20;99.90;;;;;;5006670;28;20053;-82
2022/12/11 10:41:51;;;;;;;12.45;8.93;;;-2.10;99.90;;;;;;5007373;28;20038;-82
2022/12/11 10:44:28;;;;;;;16.27;8.20;;;-2.10;99.90;;;;;;5007132;28;20046;-82
2022/12/11 10:47:12;;;;;;;20.23;10.13;;;-2.10;99.90;;;;;;5008159;28;20061;-81
2022/12/11 10:49:52;;;;;;;13.15;9.18;;;-2.20;99.90;;;;;;5006999;28;20437;-80
2022/12/11 10:52:44;;;;;;;15.02;8.85;;;-2.20;99.90;;;;;;5008418;28;20057;-79
2022/12/11 10:55:23;;;;;;;14.77;9.02;;;-2.30;99.90;;;;;;4990056;28;20050;-79
2022/12/11 10:58:04;;;;;;;11.55;9.18;;;-2.30;99.90;;;;;;4988521;28;20057;-78
2022/12/11 11:00:40;;;;;;;12.50;8.87;;;-2.40;99.90;;;;;;4988019;28;20050;-79
2022/12/11 11:03:22;;;;;;;12.55;8.48;;;-2.40;99.90;;;;;;4989781;28;20050;-80
2022/12/11 11:06:03;;;;;;;9.98;8.45;;;-2.30;99.90;;;;;;4988957;28;20567;-79
2022/12/11 11:08:41;;;;;;;13.18;7.70;;;-2.40;99.90;;;;;;4988170;28;20046;-79
2022/12/11 11:11:22;;;;;;;11.02;7.50;;;-2.40;99.90;;;;;;4987785;28;20509;-82
2022/12/11 11:13:50;;;;;;;12.07;6.82;;;-2.50;99.90;;;;;;4987467;28;20057;-82
2022/12/11 11:16:20;;;;;;;12.07;8.65;;;-2.40;99.90;;;;;;4988610;28;20533;-82
2022/12/11 11:18:52;;;;;;;10.77;8.32;;;-2.30;99.90;;;;;;4989372;28;20053;-83
2022/12/11 11:21:23;;;;;;;12.73;8.77;;;-2.20;99.90;;;;;;5023216;28;20049;-82
2022/12/11 11:23:52;;;;;;;17.27;10.65;;;-2.10;99.90;;;;;;5027904;28;20493;-82
2022/12/11 11:26:24;;;;;;;11.63;8.52;;;-2.10;99.90;;;;;;5028373;28;20743;-82
2022/12/11 11:29:28;;;;;;;9.55;8.05;;;-2.10;99.90;;;;;;5026293;28;20072;-82
2022/12/11 11:31:56;;;;;;;7.40;6.40;;;-2.10;99.90;;;;;;5027841;28;20037;-81
2022/12/11 11:34:25;;;;;;;11.88;7.93;;;-2.30;99.90;;;;;;5031275;28;20060;-82
2022/12/11 11:36:58;;;;;;;8.98;7.20;;;-2.50;99.90;;;;;;5030718;28;20134;-81
2022/12/11 11:39:36;;;;;;;10.50;7.80;;;-2.60;99.90;;;;;;5014972;28;20258;-81
2022/12/11 11:42:22;;;;;;;10.50;6.82;;;-2.60;99.90;;;;;;5012614;28;20037;-82
2022/12/11 11:45:04;;;;;;;12.65;7.80;;;-2.60;99.90;;;;;;5010525;28;20391;-82
2022/12/11 11:47:52;;;;;;;10.88;8.18;;;-2.70;99.90;;;;;;5011884;28;20497;-81
2022/12/11 11:50:32;;;;;;;13.13;7.55;;;-2.70;99.90;;;;;;5010957;28;20763;-82
2022/12/11 11:53:36;;;;;;;8.50;6.50;;;-2.70;99.90;;;;;;5011426;28;20681;-82
2022/12/11 11:56:22;;;;;;;8.20;5.60;;;-2.70;99.90;;;;;;4989733;28;20050;-82
2022/12/11 11:59:12;;;;;;;11.40;8.32;;;-2.70;99.90;;;;;;5011241;28;20049;-82
2022/12/11 12:01:43;;;;;;;12.00;7.25;;;-2.70;99.90;;;;;;5011487;28;20045;-81
2022/12/11 12:04:10;;;;;;;12.03;6.83;;;-2.70;99.90;;;;;;5012112;28;20042;-82
2022/12/11 12:06:59;;;;;;;12.68;7.10;;;-2.70;99.90;;;;;;5001414;28;20054;-82
2022/12/11 12:10:01;;;;;;;9.30;6.93;;;-2.80;99.90;;;;;;5003826;28;20042;-84
2022/12/11 12:12:53;;;;;;;9.52;8.15;;;-2.90;99.90;;;;;;4995141;28;20694;-81
2022/12/11 12:15:24;;;;;;;;;;;-2.90;99.90;;;;;;4974712;28;20043;-81
2022/12/11 12:18:08;;;;;;;9.65;8.30;;;-2.80;99.90;;;;;;5006258;28;19929;-81
2022/12/11 12:20:53;;;;;;;10.73;8.52;;;-2.70;99.90;;;;;;5000694;28;20054;-81
2022/12/11 12:23:32;;;;;;;9.43;6.57;;;-2.70;99.90;;;;;;5000119;28;20054;-81
2022/12/11 12:26:25;;;;;;;11.73;8.93;;;-2.70;99.90;;;;;;5033091;28;20049;-81
2022/12/11 12:29:02;;;;;;;10.85;9.18;;;-2.80;99.90;;;;;;5000547;28;20042;-81
2022/12/11 12:31:39;;;;;;;17.02;9.82;;;-2.80;99.90;;;;;;4998961;28;20109;-81
2022/12/11 12:34:25;;;;;;;10.77;9.35;;;-2.70;99.90;;;;;;5008936;28;20072;-81
2022/12/11 12:37:16;;;;;;;11.88;8.15;;;-2.80;99.90;;;;;;5016235;28;20038;-81
2022/12/11 12:39:58;;;;;;;8.73;7.00;;;-2.80;99.90;;;;;;5003540;28;20051;-81
2022/12/11 12:42:43;;;;;;;13.05;7.03;;;-2.80;99.90;;;;;;4992950;28;20054;-81
2022/12/11 12:45:13;;;;;;;12.00;8.95;;;-2.80;99.90;;;;;;4995841;28;20413;-81
2022/12/11 12:47:45;;;;;;;11.77;9.40;;;-2.80;99.90;;;;;;5004750;28;20046;-81
2022/12/11 12:50:23;;;;;;;13.65;8.90;;;-2.80;99.90;;;;;;5000735;28;20051;-81
2022/12/11 12:52:52;;;;;;;13.30;8.35;;;-2.80;99.90;;;;;;4998382;28;20045;-81
2022/12/11 12:55:30;;;;;;;8.55;7.68;;;-2.70;99.90;;;;;;5004101;28;20057;-81
2022/12/11 12:58:01;;;;;;;17.88;12.30;;;-2.90;99.90;;;;;;5009206;28;20053;-81
2022/12/11 13:00:38;;;;;;;13.75;8.77;;;-2.80;99.90;;;;;;5010419;28;20065;-81
2022/12/11 13:03:25;;;;;;;7.15;6.30;;;-2.70;99.90;;;;;;5011479;28;20069;-82
2022/12/11 13:06:02;;;;;;;9.05;7.32;;;-2.70;99.90;;;;;;5009541;28;20042;-82
2022/12/11 13:08:37;;;;;;;8.88;6.47;;;-2.60;99.90;;;;;;5006985;28;20050;-81
2022/12/11 13:11:10;;;;;;;9.85;7.88;;;-2.70;99.90;;;;;;5010756;28;20133;-82
2022/12/11 13:13:41;;;;;;;9.88;6.68;;;-2.70;99.90;;;;;;5009240;28;20057;-82
2022/12/11 13:16:15;;;;;;;15.40;10.37;;;-2.80;99.90;;;;;;5010589;28;20073;-80